Time;durP1;ratioP1;P1;durP2;ratioP2;P2;SDS_P1;SDS_P2;PMS_P1;PMS_P2;Temp;Humidity;BMP_temperature;BMP_pressure;BME280_temperature;BME280_humidity;BME280_pressure;Samples;Min_cycle;Max_cycle;Signal;HPM_P1;HPM_P2
2023/12/29 00:01:43;;;;;;;;;;;;;;;15.99;47.32;101243.63;5075959;28;1102;-50
2023/12/29 00:04:09;;;;;;;;;;;;;;;15.68;46.78;101254.31;5062729;28;1141;-53
2023/12/29 00:06:37;;;;;;;;;;;;;;;15.54;45.74;101250.69;5071279;28;908;-53
2023/12/29 00:09:03;;;;;;;;;;;;;;;16.50;47.15;101250.16;5061118;28;1082;-54
2023/12/29 00:11:28;;;;;;;;;;;;;;;16.86;46.56;101256.69;5055879;28;1068;-52
2023/12/29 00:13:54;;;;;;;;;;;;;;;16.02;46.87;101259.34;5069048;28;1207;-52
2023/12/29 00:16:19;;;;;;;;;;;;;;;15.85;46.22;101247.94;5064192;28;1107;-54
2023/12/29 00:18:45;;;;;;;;;;;;;;;15.86;46.94;101252.31;5064733;28;1261;-52
2023/12/29 00:21:10;;;;;;;;;;;;;;;17.30;45.77;101256.47;5075870;28;1973;-52
2023/12/29 00:23:36;;;;;;;;;;;;;;;16.07;47.41;101251.94;5056053;28;1182;-55
2023/12/29 00:26:01;;;;;;;;;;;;;;;15.65;46.78;101244.72;5063998;28;1071;-54
2023/12/29 00:28:27;;;;;;;;;;;;;;;15.60;47.03;101257.41;5075240;28;1208;-54
2023/12/29 00:30:52;;;;;;;;;;;;;;;16.59;46.88;101246.06;5067098;28;945;-53
2023/12/29 00:33:18;;;;;;;;;;;;;;;15.78;47.51;101244.81;5055649;28;1490;-52
2023/12/29 00:35:44;;;;;;;;;;;;;;;16.42;47.59;101245.34;5037942;28;1104;-54
2023/12/29 00:38:09;;;;;;;;;;;;;;;16.98;46.21;101246.19;5056353;28;1184;-56
2023/12/29 00:40:35;;;;;;;;;;;;;;;16.13;47.24;101250.72;5044810;28;2236;-52
2023/12/29 00:43:01;;;;;;;;;;;;;;;15.74;46.99;101243.31;5061812;28;1143;-53
2023/12/29 00:45:29;;;;;;;;;;;;;;;15.55;46.21;101249.75;5062822;28;1059;-53
2023/12/29 00:47:55;;;;;;;;;;;;;;;16.52;47.34;101248.25;5061380;28;1083;-56
2023/12/29 00:50:20;;;;;;;;;;;;;;;16.49;47.03;101248.44;5062684;28;1139;-53
2023/12/29 00:52:46;;;;;;;;;;;;;;;15.85;47.21;101244.47;5062371;28;1133;-53
2023/12/29 00:55:11;;;;;;;;;;;;;;;16.66;47.47;101250.03;5061524;28;869;-53
2023/12/29 00:57:37;;;;;;;;;;;;;;;16.49;47.10;101245.78;5054692;28;1175;-53
2023/12/29 01:00:03;;;;;;;;;;;;;;;15.88;47.51;101247.75;5060986;28;1910;-51
2023/12/29 01:02:28;;;;;;;;;;;;;;;16.24;48.26;101252.69;5078506;28;1238;-55
2023/12/29 01:04:54;;;;;;;;;;;;;;;16.72;46.63;101246.94;5066343;28;1207;-51
2023/12/29 01:07:19;;;;;;;;;;;;;;;15.93;47.29;101247.50;5078067;28;847;-56
2023/12/29 01:09:45;;;;;;;;;;;;;;;17.34;46.40;101246.47;5040959;28;2053;-56
2023/12/29 01:12:11;;;;;;;;;;;;;;;16.40;46.97;101242.78;5059612;28;1076;-54
2023/12/29 01:14:36;;;;;;;;;;;;;;;16.03;47.45;101240.66;5078856;28;1039;-52
2023/12/29 01:17:02;;;;;;;;;;;;;;;17.68;45.25;101246.81;5065554;28;1191;-54
2023/12/29 01:19:28;;;;;;;;;;;;;;;16.28;47.38;101240.94;5071176;28;1918;-56
2023/12/29 01:21:53;;;;;;;;;;;;;;;15.97;46.86;101242.81;5059213;28;1060;-56
2023/12/29 01:24:19;;;;;;;;;;;;;;;15.89;45.99;101230.03;5078469;28;1063;-55
2023/12/29 01:26:44;;;;;;;;;;;;;;;15.61;45.67;101224.66;5060606;28;1137;-53
2023/12/29 01:29:10;;;;;;;;;;;;;;;16.06;46.92;101223.72;5053574;28;1126;-51
2023/12/29 01:31:35;;;;;;;;;;;;;;;16.54;47.24;101217.13;5072174;28;916;-50
2023/12/29 01:34:01;;;;;;;;;;;;;;;15.84;47.06;101224.16;5071195;28;1100;-53
2023/12/29 01:36:27;;;;;;;;;;;;;;;15.60;47.10;101219.44;5058753;28;1067;-55
2023/12/29 01:38:52;;;;;;;;;;;;;;;17.01;46.22;101217.59;5058479;28;1974;-55
2023/12/29 01:41:21;;;;;;;;;;;;;;;16.00;47.23;101219.63;5072117;28;1147;-52
2023/12/29 01:44:02;;;;;;;;;;;;;;;16.27;47.89;101221.50;5051192;28;849;-52
2023/12/29 01:46:30;;;;;;;;;;;;;;;16.67;46.92;101224.28;5077951;28;1011;-54
2023/12/29 01:48:56;;;;;;;;;;;;;;;15.94;47.35;101213.81;5078632;28;1132;-53
2023/12/29 01:51:23;;;;;;;;;;;;;;;15.68;46.61;101214.53;5060542;28;1091;-55
2023/12/29 01:53:49;;;;;;;;;;;;;;;15.64;45.71;101203.25;5067983;28;1131;-55
2023/12/29 01:56:15;;;;;;;;;;;;;;;17.23;45.94;101202.84;5058952;28;885;-53
2023/12/29 01:58:40;;;;;;;;;;;;;;;16.08;46.97;101192.59;5060261;28;1408;-52
2023/12/29 02:01:06;;;;;;;;;;;;;;;16.38;48.12;101196.88;5043234;28;2418;-54
2023/12/29 02:03:33;;;;;;;;;;;;;;;16.59;47.07;101196.44;5040516;28;1155;-54
2023/12/29 02:05:58;;;;;;;;;;;;;;;15.96;47.22;101201.31;5043229;28;1064;-54
2023/12/29 02:08:24;;;;;;;;;;;;;;;17.56;45.97;101199.78;5057116;28;918;-52
2023/12/29 02:10:50;;;;;;;;;;;;;;;16.28;47.23;101193.97;5060804;28;1126;-55
2023/12/29 02:13:15;;;;;;;;;;;;;;;15.94;46.98;101196.13;5078098;28;1084;-52
2023/12/29 02:15:41;;;;;;;;;;;;;;;17.13;46.41;101207.13;5064210;28;991;-55
2023/12/29 02:18:07;;;;;;;;;;;;;;;16.19;46.83;101197.22;5059578;28;1075;-54
2023/12/29 02:20:33;;;;;;;;;;;;;;;15.85;46.66;101189.56;5058917;28;1969;-54
2023/12/29 02:23:00;;;;;;;;;;;;;;;17.06;46.56;101190.69;5057968;28;1070;-51
2023/12/29 02:25:25;;;;;;;;;;;;;;;16.36;46.96;101192.63;5042974;28;1104;-54
2023/12/29 02:28:09;;;;;;;;;;;;;;;15.95;46.50;101194.31;5077803;28;1202;-53
2023/12/29 02:30:39;;;;;;;;;;;;;;;17.21;46.07;101182.66;5056125;28;1145;-55
2023/12/29 02:33:05;;;;;;;;;;;;;;;16.22;47.16;101177.59;5058959;28;1141;-52
2023/12/29 02:35:32;;;;;;;;;;;;;;;15.73;46.52;101172.63;5052891;28;1205;-51
2023/12/29 02:37:58;;;;;;;;;;;;;;;16.94;47.09;101176.44;5058153;28;1052;-51
2023/12/29 02:40:24;;;;;;;;;;;;;;;16.32;46.92;101176.06;5063351;28;1983;-56
2023/12/29 02:42:49;;;;;;;;;;;;;;;15.97;46.80;101173.81;5058654;28;1118;-56
2023/12/29 02:45:15;;;;;;;;;;;;;;;17.61;45.49;101169.25;5052954;28;1106;-53
2023/12/29 02:47:41;;;;;;;;;;;;;;;16.30;47.14;101167.31;5069717;28;1155;-54
2023/12/29 02:50:07;;;;;;;;;;;;;;;15.92;46.65;101168.81;5058575;28;1098;-53
2023/12/29 02:52:33;;;;;;;;;;;;;;;15.76;45.80;101167.16;5076529;28;1083;-53
2023/12/29 02:54:58;;;;;;;;;;;;;;;17.19;45.94;101168.63;5075582;28;1246;-54
2023/12/29 02:57:24;;;;;;;;;;;;;;;16.11;47.16;101167.69;5059462;28;1201;-52
2023/12/29 02:59:49;;;;;;;;;;;;;;;16.61;47.67;101162.69;5076513;28;1984;-51
2023/12/29 03:02:15;;;;;;;;;;;;;;;16.67;46.70;101153.44;5064447;28;1234;-53
2023/12/29 03:04:41;;;;;;;;;;;;;;;15.99;47.12;101161.34;5075820;28;1159;-55
2023/12/29 03:07:06;;;;;;;;;;;;;;;15.72;46.23;101155.03;5071783;28;1242;-55
2023/12/29 03:09:32;;;;;;;;;;;;;;;16.05;47.20;101153.00;5044810;28;1103;-54
2023/12/29 03:11:58;;;;;;;;;;;;;;;17.20;45.81;101155.22;5059019;28;1268;-57
2023/12/29 03:14:23;;;;;;;;;;;;;;;16.12;46.77;101156.97;5070185;28;1170;-50
2023/12/29 03:16:49;;;;;;;;;;;;;;;15.78;46.39;101154.63;5038697;28;1130;-54
2023/12/29 03:19:15;;;;;;;;;;;;;;;17.44;45.53;101145.63;5075062;28;1910;-54
2023/12/29 03:21:41;;;;;;;;;;;;;;;16.24;46.97;101146.50;5076454;28;1048;-52
2023/12/29 03:24:07;;;;;;;;;;;;;;;15.78;46.41;101151.13;5055073;28;1180;-53
2023/12/29 03:26:32;;;;;;;;;;;;;;;15.66;45.65;101152.75;5069163;28;1086;-55
2023/12/29 03:28:58;;;;;;;;;;;;;;;16.17;46.85;101148.69;5062768;28;1201;-52
2023/12/29 03:31:24;;;;;;;;;;;;;;;17.35;45.83;101150.63;5069809;28;1095;-55
2023/12/29 03:33:50;;;;;;;;;;;;;;;16.11;47.34;101143.78;5075050;28;1207;-55
2023/12/29 03:36:15;;;;;;;;;;;;;;;16.39;47.64;101148.16;5045624;28;1071;-54
2023/12/29 03:38:41;;;;;;;;;;;;;;;17.03;46.37;101151.06;5052471;28;1160;-55
2023/12/29 03:41:07;;;;;;;;;;;;;;;16.09;47.13;101148.34;5056237;28;1976;-51
2023/12/29 03:43:32;;;;;;;;;;;;;;;15.88;47.38;101140.78;5068199;28;1079;-53
2023/12/29 03:45:58;;;;;;;;;;;;;;;17.63;45.34;101145.19;5056493;28;996;-50
2023/12/29 03:48:24;;;;;;;;;;;;;;;16.33;46.70;101143.22;5075036;28;1059;-54
2023/12/29 03:50:50;;;;;;;;;;;;;;;15.85;46.72;101143.66;5064208;28;1273;-52
2023/12/29 03:53:16;;;;;;;;;;;;;;;15.78;45.78;101148.50;5058128;28;1242;-54
2023/12/29 03:55:41;;;;;;;;;;;;;;;15.52;45.65;101149.16;5069260;28;1099;-58
2023/12/29 03:58:07;;;;;;;;;;;;;;;17.02;46.71;101149.31;5074148;28;1262;-55
2023/12/29 04:00:32;;;;;;;;;;;;;;;16.35;46.95;101143.16;5057821;28;1898;-56
2023/12/29 04:02:58;;;;;;;;;;;;;;;15.88;46.62;101146.09;5057772;28;1094;-56
2023/12/29 04:05:23;;;;;;;;;;;;;;;17.35;46.25;101145.31;5067701;28;1129;-56
2023/12/29 04:07:49;;;;;;;;;;;;;;;16.26;46.92;101152.56;5059418;28;1190;-56
2023/12/29 04:10:15;;;;;;;;;;;;;;;15.82;46.65;101144.69;5067652;28;1187;-56
2023/12/29 04:12:40;;;;;;;;;;;;;;;17.12;46.62;101153.09;5062783;28;1214;-55
2023/12/29 04:15:06;;;;;;;;;;;;;;;16.56;46.91;101155.94;5063846;28;1166;-56
2023/12/29 04:17:32;;;;;;;;;;;;;;;15.95;46.50;101149.22;5056161;28;1061;-51
2023/12/29 04:19:57;;;;;;;;;;;;;;;15.69;46.04;101154.34;5049574;28;1901;-51
2023/12/29 04:22:23;;;;;;;;;;;;;;;17.20;46.29;101157.88;5038257;28;1236;-55
2023/12/29 04:24:48;;;;;;;;;;;;;;;16.39;46.75;101168.53;5056178;28;1075;-55
2023/12/29 04:27:14;;;;;;;;;;;;;;;15.95;46.55;101163.31;5074142;28;1162;-57
2023/12/29 04:29:40;;;;;;;;;;;;;;;17.40;45.94;101163.59;5064255;28;1169;-56
2023/12/29 04:32:05;;;;;;;;;;;;;;;16.56;46.91;101169.22;5057210;28;1107;-55
2023/12/29 04:34:31;;;;;;;;;;;;;;;16.07;46.44;101174.13;5051039;28;1151;-54
2023/12/29 04:36:57;;;;;;;;;;;;;;;15.96;47.08;101177.44;5064385;28;1170;-55
2023/12/29 04:39:22;;;;;;;;;;;;;;;16.72;46.78;101175.22;5079827;28;1981;-55
2023/12/29 04:41:48;;;;;;;;;;;;;;;15.90;46.75;101176.00;5070001;28;1163;-59
2023/12/29 04:44:13;;;;;;;;;;;;;;;16.37;47.51;101176.59;5078656;28;1083;-55
2023/12/29 04:46:39;;;;;;;;;;;;;;;16.20;46.98;101174.22;5078723;28;1237;-57
2023/12/29 04:49:04;;;;;;;;;;;;;;;16.30;47.54;101177.13;5065913;28;1097;-58
2023/12/29 04:51:30;;;;;;;;;;;;;;;17.57;45.20;101188.16;5079141;28;1143;-55
2023/12/29 04:53:55;;;;;;;;;;;;;;;16.29;46.70;101186.88;5078755;28;1216;-53
2023/12/29 04:56:21;;;;;;;;;;;;;;;15.95;46.72;101186.38;5070678;28;958;-52
2023/12/29 04:58:47;;;;;;;;;;;;;;;15.67;46.06;101186.28;5059416;28;1126;-54
2023/12/29 05:01:12;;;;;;;;;;;;;;;16.65;47.13;101182.75;5079208;28;1906;-54
2023/12/29 05:03:38;;;;;;;;;;;;;;;16.84;46.31;101189.50;5078437;28;1134;-53
2023/12/29 05:06:03;;;;;;;;;;;;;;;16.00;46.76;101177.19;5065824;28;1079;-56
2023/12/29 05:08:29;;;;;;;;;;;;;;;15.72;46.51;101183.34;5069728;28;1186;-55
2023/12/29 05:10:55;;;;;;;;;;;;;;;16.47;47.17;101182.16;5065482;28;2823;-53
2023/12/29 05:13:20;;;;;;;;;;;;;;;16.68;46.40;101183.50;5066008;28;1827;-60
2023/12/29 05:15:46;;;;;;;;;;;;;;;15.99;46.57;101166.66;5062407;28;2325;-59
2023/12/29 05:18:12;;;;;;;;;;;;;;;16.57;47.39;101178.88;5064686;28;1979;-56
2023/12/29 05:20:37;;;;;;;;;;;;;;;16.17;46.88;101177.91;5068188;28;2092;-58
2023/12/29 05:23:03;;;;;;;;;;;;;;;15.78;46.69;101181.16;5071406;28;1948;-59
2023/12/29 05:25:28;;;;;;;;;;;;;;;17.13;44.56;101176.06;5078576;28;1187;-58
2023/12/29 05:27:54;;;;;;;;;;;;;;;16.73;45.35;101173.44;5078021;28;1032;-57
2023/12/29 05:30:20;;;;;;;;;;;;;;;16.39;46.19;101176.50;5077968;28;1087;-59
2023/12/29 05:32:45;;;;;;;;;;;;;;;16.12;46.50;101172.88;5068204;28;1239;-59
2023/12/29 05:35:11;;;;;;;;;;;;;;;15.96;46.80;101180.09;5071321;28;1168;-58
2023/12/29 05:37:36;;;;;;;;;;;;;;;15.77;47.24;101189.22;5071071;28;1149;-59
2023/12/29 05:40:02;;;;;;;;;;;;;;;15.65;47.68;101186.38;5077559;28;1898;-57
2023/12/29 05:42:27;;;;;;;;;;;;;;;15.52;48.00;101178.34;5067110;28;1027;-58
2023/12/29 05:44:53;;;;;;;;;;;;;;;15.40;47.98;101181.72;5064640;28;1138;-57
2023/12/29 05:47:19;;;;;;;;;;;;;;;16.15;46.82;101175.34;5067554;28;1055;-57
2023/12/29 05:49:44;;;;;;;;;;;;;;;17.19;44.11;101176.59;5061389;28;1154;-56
2023/12/29 05:52:10;;;;;;;;;;;;;;;16.20;46.41;101169.72;5071463;28;1261;-50
2023/12/29 05:54:35;;;;;;;;;;;;;;;15.87;46.78;101165.59;5069404;28;1828;-50
2023/12/29 05:57:01;;;;;;;;;;;;;;;15.60;47.69;101167.25;5067592;28;1130;-57
2023/12/29 05:59:27;;;;;;;;;;;;;;;15.45;48.08;101165.56;5075595;28;1918;-57
2023/12/29 06:01:52;;;;;;;;;;;;;;;16.56;45.89;101171.88;5077760;28;1007;-51
2023/12/29 06:04:18;;;;;;;;;;;;;;;17.21;43.89;101172.88;5077318;28;1141;-52
2023/12/29 06:06:44;;;;;;;;;;;;;;;16.35;45.62;101169.72;5077477;28;1125;-52
2023/12/29 06:09:10;;;;;;;;;;;;;;;15.89;46.74;101171.66;5067077;28;1203;-49
2023/12/29 06:11:36;;;;;;;;;;;;;;;15.64;47.48;101166.13;5076090;28;1075;-54
2023/12/29 06:14:01;;;;;;;;;;;;;;;15.66;47.35;101168.66;5077490;28;1087;-53
2023/12/29 06:16:27;;;;;;;;;;;;;;;17.15;44.03;101170.63;5077451;28;1078;-51
2023/12/29 06:18:53;;;;;;;;;;;;;;;16.64;44.92;101169.56;5077538;28;1269;-48
2023/12/29 06:21:19;;;;;;;;;;;;;;;15.97;46.35;101161.41;5072118;28;1909;-53
2023/12/29 06:23:44;;;;;;;;;;;;;;;15.64;47.42;101167.91;5077335;28;1986;-51
2023/12/29 06:26:14;;;;;;;;;;;;;;;15.50;47.42;101176.69;5041926;28;1162;-54
2023/12/29 06:28:40;;;;;;;;;;;;;;;15.98;46.61;101173.75;5065048;28;1102;-51
2023/12/29 06:31:05;;;;;;;;;;;;;;;17.40;43.38;101189.38;5071100;28;1039;-55
2023/12/29 06:33:31;;;;;;;;;;;;;;;16.77;44.49;101194.38;5068301;28;1149;-56
2023/12/29 06:35:57;;;;;;;;;;;;;;;16.12;46.28;101188.81;5077154;28;1104;-49
2023/12/29 06:38:23;;;;;;;;;;;;;;;15.77;46.75;101195.38;5063723;28;1139;-50
2023/12/29 06:40:49;;;;;;;;;;;;;;;15.55;47.34;101179.94;5070016;28;1973;-51
2023/12/29 06:43:14;;;;;;;;;;;;;;;15.88;47.10;101184.06;5058930;28;1176;-50
2023/12/29 06:45:40;;;;;;;;;;;;;;;17.28;43.72;101193.72;5073705;28;836;-53
2023/12/29 06:48:05;;;;;;;;;;;;;;;16.56;44.92;101199.31;5076216;28;1019;-58
2023/12/29 06:50:31;;;;;;;;;;;;;;;15.99;46.27;101198.50;5076649;28;1048;-55
2023/12/29 06:52:57;;;;;;;;;;;;;;;15.69;47.26;101191.47;5076188;28;1887;-56
2023/12/29 06:55:24;;;;;;;;;;;;;;;15.49;47.66;101188.28;5075044;28;1420;-56
2023/12/29 06:57:49;;;;;;;;;;;;;;;16.42;45.63;101199.34;5076208;28;1060;-57
2023/12/29 07:00:15;;;;;;;;;;;;;;;17.54;43.22;101209.66;5076442;28;1909;-53
2023/12/29 07:02:40;;;;;;;;;;;;;;;16.63;44.97;101205.06;5076815;28;1110;-53
2023/12/29 07:05:06;;;;;;;;;;;;;;;16.10;46.17;101209.28;5076758;28;1139;-56
2023/12/29 07:07:32;;;;;;;;;;;;;;;15.72;47.08;101202.75;5076136;28;1135;-54
2023/12/29 07:09:57;;;;;;;;;;;;;;;15.81;46.62;101198.69;5063050;28;1047;-50
2023/12/29 07:12:23;;;;;;;;;;;;;;;16.89;44.50;101206.00;5068486;28;1140;-57
2023/12/29 07:14:48;;;;;;;;;;;;;;;17.15;43.78;101202.53;5075749;28;1011;-54
2023/12/29 07:17:14;;;;;;;;;;;;;;;16.28;45.71;101201.94;5076707;28;1050;-55
2023/12/29 07:19:39;;;;;;;;;;;;;;;16.12;46.12;101212.69;5075517;28;1983;-54
2023/12/29 07:22:08;;;;;;;;;;;;;;;15.86;46.44;101209.00;5073912;28;902;-56
2023/12/29 07:24:35;;;;;;;;;;;;;;;15.54;47.55;101215.34;5075130;28;1907;-54
2023/12/29 07:27:00;;;;;;;;;;;;;;;17.05;44.25;101214.75;5076319;28;1099;-57
2023/12/29 07:29:26;;;;;;;;;;;;;;;16.94;44.31;101212.78;5075879;28;1205;-55
2023/12/29 07:31:52;;;;;;;;;;;;;;;16.23;45.95;101216.47;5075946;28;1247;-50
2023/12/29 07:34:17;;;;;;;;;;;;;;;15.94;46.55;101208.53;5071299;28;1083;-51
2023/12/29 07:36:43;;;;;;;;;;;;;;;15.65;47.05;101218.19;5075258;28;1055;-53
2023/12/29 07:39:09;;;;;;;;;;;;;;;15.89;47.06;101230.03;5075768;28;1961;-48
2023/12/29 07:41:39;;;;;;;;;;;;;;;17.34;43.61;101219.88;5075342;28;1092;-53
2023/12/29 07:44:04;;;;;;;;;;;;;;;16.61;44.99;101215.78;5075347;28;1289;-53
2023/12/29 07:46:30;;;;;;;;;;;;;;;16.12;46.09;101218.00;5074906;28;1377;-52
2023/12/29 07:48:55;;;;;;;;;;;;;;;15.78;46.82;101212.16;5075490;28;1047;-51
2023/12/29 07:51:21;;;;;;;;;;;;;;;15.52;47.63;101215.44;5075049;28;1159;-53
2023/12/29 07:53:47;;;;;;;;;;;;;;;16.00;46.64;101211.66;5074901;28;1844;-54
2023/12/29 07:56:12;;;;;;;;;;;;;;;17.36;43.66;101210.00;5075371;28;1170;-52
2023/12/29 07:58:38;;;;;;;;;;;;;;;16.81;44.54;101215.41;5072634;28;936;-49
2023/12/29 08:01:03;;;;;;;;;;;;;;;16.20;45.99;101219.34;5075414;28;1918;-53
2023/12/29 08:03:29;;;;;;;;;;;;;;;15.96;46.32;101214.59;5075542;28;1123;-51
2023/12/29 08:05:55;;;;;;;;;;;;;;;14.80;47.38;101067.81;5074300;28;1169;-52
2023/12/29 08:08:20;;;;;;;;;;;;;;;16.16;46.50;101211.53;5075589;28;1074;-49
2023/12/29 08:10:46;;;;;;;;;;;;;;;17.49;43.25;101216.19;5064608;28;1074;-48
2023/12/29 08:13:11;;;;;;;;;;;;;;;16.65;44.75;101216.41;5075307;28;1174;-51
2023/12/29 08:15:37;;;;;;;;;;;;;;;16.15;45.93;101214.28;5074676;28;1011;-50
2023/12/29 08:18:03;;;;;;;;;;;;;;;15.86;46.58;101215.19;5075325;28;1085;-50
2023/12/29 08:20:29;;;;;;;;;;;;;;;15.63;47.38;101214.78;5075126;28;1910;-48
2023/12/29 08:22:55;;;;;;;;;;;;;;;16.48;45.61;101207.75;5070779;28;875;-46
2023/12/29 08:25:21;;;;;;;;;;;;;;;17.27;43.54;101213.31;5061133;28;1087;-53
2023/12/29 08:27:46;;;;;;;;;;;;;;;16.38;45.36;101209.34;5075367;28;1100;-53
2023/12/29 08:30:12;;;;;;;;;;;;;;;15.96;46.49;101211.94;5075145;28;1063;-48
2023/12/29 08:32:38;;;;;;;;;;;;;;;15.70;47.15;101209.97;5075051;28;1194;-49
2023/12/29 08:35:03;;;;;;;;;;;;;;;15.53;47.49;101208.38;5063135;28;979;-51
2023/12/29 08:37:29;;;;;;;;;;;;;;;16.83;45.07;101211.69;5074386;28;1078;-51
2023/12/29 08:39:54;;;;;;;;;;;;;;;17.01;43.89;101206.97;5073365;28;2006;-55
2023/12/29 08:42:21;;;;;;;;;;;;;;;16.22;45.88;101206.78;5075320;28;1028;-56
2023/12/29 08:44:46;;;;;;;;;;;;;;;15.83;46.97;101203.91;5074908;28;1045;-50
2023/12/29 08:47:13;;;;;;;;;;;;;;;15.65;47.18;101202.28;5071078;28;852;-52
2023/12/29 08:49:40;;;;;;;;;;;;;;;15.53;47.63;101197.75;5075023;28;1131;-57
2023/12/29 08:52:06;;;;;;;;;;;;;;;16.36;45.86;101203.25;5074612;28;1160;-56
2023/12/29 08:54:31;;;;;;;;;;;;;;;17.47;43.13;101194.16;5074828;28;2200;-57
2023/12/29 08:56:57;;;;;;;;;;;;;;;16.57;45.17;101198.34;5074934;28;1096;-57
2023/12/29 08:59:23;;;;;;;;;;;;;;;16.02;46.55;101195.66;5067713;28;1902;-55
2023/12/29 09:01:48;;;;;;;;;;;;;;;15.77;47.16;101197.16;5074853;28;1043;-51
2023/12/29 09:04:14;;;;;;;;;;;;;;;15.63;47.37;101192.75;5074727;28;1015;-53
2023/12/29 09:06:39;;;;;;;;;;;;;;;15.94;46.92;101197.91;5074532;28;975;-52
2023/12/29 09:09:05;;;;;;;;;;;;;;;17.32;43.70;101189.88;5063936;28;1023;-53
2023/12/29 09:11:31;;;;;;;;;;;;;;;16.69;44.91;101182.53;5068453;28;905;-55
2023/12/29 09:13:56;;;;;;;;;;;;;;;16.07;46.23;101176.78;5065764;28;1148;-54
2023/12/29 09:16:22;;;;;;;;;;;;;;;15.79;46.85;101169.63;5057540;28;1019;-52
2023/12/29 09:18:47;;;;;;;;;;;;;;;15.62;47.54;101168.00;5069601;28;1182;-48
2023/12/29 09:21:13;;;;;;;;;;;;;;;16.04;46.69;101167.22;5073320;28;1905;-49
2023/12/29 09:23:39;;;;;;;;;;;;;;;17.37;43.51;101169.16;5069588;28;1810;-50
2023/12/29 09:26:04;;;;;;;;;;;;;;;16.67;44.91;101155.22;5062778;28;1130;-51
2023/12/29 09:28:33;;;;;;;;;;;;;;;16.07;46.13;101152.88;5066059;28;1027;-53
2023/12/29 09:30:58;;;;;;;;;;;;;;;15.83;46.64;101154.31;5076078;28;1219;-51
2023/12/29 09:33:24;;;;;;;;;;;;;;;15.64;47.50;101149.34;5077719;28;1044;-50
2023/12/29 09:35:50;;;;;;;;;;;;;;;15.49;47.64;101151.16;5076017;28;961;-47
2023/12/29 09:38:16;;;;;;;;;;;;;;;16.82;44.77;101154.19;5078371;28;1174;-53
2023/12/29 09:40:41;;;;;;;;;;;;;;;17.22;43.64;101144.47;5077835;28;1906;-52
2023/12/29 09:43:07;;;;;;;;;;;;;;;16.26;45.86;101141.94;5077921;28;1233;-50
2023/12/29 09:45:33;;;;;;;;;;;;;;;15.98;46.40;101144.56;5059860;28;1109;-53
2023/12/29 09:47:59;;;;;;;;;;;;;;;15.72;47.41;101140.91;5071147;28;941;-53
2023/12/29 09:50:25;;;;;;;;;;;;;;;15.57;47.62;101134.75;5065887;28;1132;-53
2023/12/29 09:52:50;;;;;;;;;;;;;;;15.77;47.54;101134.38;5059791;28;1125;-53
2023/12/29 09:55:16;;;;;;;;;;;;;;;17.22;43.94;101145.34;5059850;28;2071;-53
2023/12/29 09:57:42;;;;;;;;;;;;;;;16.66;44.83;101130.47;5077601;28;1019;-50
2023/12/29 10:00:10;;;;;;;;;;;;;;;16.09;46.01;101124.47;5048012;28;1957;-54
2023/12/29 10:02:38;;;;;;;;;;;;;;;15.73;47.27;101126.69;5077442;28;1008;-52
2023/12/29 10:05:05;;;;;;;;;;;;;;;15.63;47.44;101123.78;5076820;28;1038;-51
2023/12/29 10:07:39;;;;;;;;;;;;;;;16.39;46.04;101120.75;5077220;28;1059;-50
2023/12/29 10:10:09;;;;;;;;;;;;;;;17.35;43.48;101110.75;5056643;28;1131;-53
2023/12/29 10:12:35;;;;;;;;;;;;;;;16.41;45.21;101108.22;5070996;28;1146;-50
2023/12/29 10:15:05;;;;;;;;;;;;;;;15.98;46.33;101107.41;5059315;28;1262;-51
2023/12/29 10:17:43;;;;;;;;;;;;;;;15.78;47.09;101106.03;5063958;28;992;-51
2023/12/29 10:20:15;;;;;;;;;;;;;;;15.58;47.20;101107.31;5076815;28;1898;-50
2023/12/29 10:22:45;;;;;;;;;;;;;;;16.69;45.05;101101.06;5076341;28;1332;-52
2023/12/29 10:25:10;;;;;;;;;;;;;;;17.38;43.13;101099.88;5064041;28;2162;-50
2023/12/29 10:27:36;;;;;;;;;;;;;;;16.44;45.45;101101.84;5076156;28;1113;-53
2023/12/29 10:30:02;;;;;;;;;;;;;;;16.04;46.10;101106.19;5058626;28;1078;-52
2023/12/29 10:32:29;;;;;;;;;;;;;;;15.78;46.72;101098.09;5063304;28;1001;-50
2023/12/29 10:35:08;;;;;;;;;;;;;;;15.65;47.01;101098.84;5068231;28;1060;-49
2023/12/29 10:37:34;;;;;;;;;;;;;;;15.82;46.95;101099.56;5075033;28;1009;-52
2023/12/29 10:40:00;;;;;;;;;;;;;;;17.24;43.83;101110.66;5075810;28;1955;-54
2023/12/29 10:42:28;;;;;;;;;;;;;;;16.65;44.85;101102.19;5077220;28;1035;-47
2023/12/29 10:45:07;;;;;;;;;;;;;;;16.09;46.45;101113.84;5073378;28;1047;-51
2023/12/29 10:47:35;;;;;;;;;;;;;;;15.78;46.81;101109.53;5068488;28;908;-49
2023/12/29 10:50:01;;;;;;;;;;;;;;;15.64;47.60;101096.31;5062842;28;1040;-53
2023/12/29 10:52:26;;;;;;;;;;;;;;;15.49;47.65;101096.34;5076822;28;1071;-51
2023/12/29 10:54:55;;;;;;;;;;;;;;;16.69;45.15;101092.22;5064094;28;1801;-51
2023/12/29 10:57:20;;;;;;;;;;;;;;;17.30;43.32;101099.59;5058115;28;1187;-49
2023/12/29 10:59:51;;;;;;;;;;;;;;;16.37;45.40;101090.78;5063475;28;1914;-52
2023/12/29 11:02:17;;;;;;;;;;;;;;;15.93;46.30;101088.28;5050838;28;1477;-49
2023/12/29 11:04:43;;;;;;;;;;;;;;;15.72;47.15;101093.16;5058380;28;1264;-53
2023/12/29 11:07:11;;;;;;;;;;;;;;;15.60;47.30;101085.03;5076389;28;1050;-52
2023/12/29 11:09:36;;;;;;;;;;;;;;;15.73;47.19;101086.91;5057716;28;1059;-51
2023/12/29 11:12:03;;;;;;;;;;;;;;;17.13;44.17;101088.31;5055512;28;952;-48
2023/12/29 11:14:28;;;;;;;;;;;;;;;16.94;44.08;101078.09;5057988;28;1024;-52
2023/12/29 11:16:54;;;;;;;;;;;;;;;16.25;45.68;101074.72;5076056;28;1094;-52
2023/12/29 11:19:20;;;;;;;;;;;;;;;15.91;46.45;101068.97;5072504;28;1910;-52
2023/12/29 11:21:45;;;;;;;;;;;;;;;15.72;47.28;101063.97;5064750;28;1063;-52
2023/12/29 11:24:11;;;;;;;;;;;;;;;15.64;47.13;101062.69;5070288;28;1877;-49
2023/12/29 11:26:37;;;;;;;;;;;;;;;16.67;45.26;101065.75;5066368;28;1090;-47
2023/12/29 11:29:04;;;;;;;;;;;;;;;17.38;43.42;101064.50;5051725;28;1107;-50
2023/12/29 11:31:30;;;;;;;;;;;;;;;16.48;45.22;101061.69;5065992;28;1096;-52
2023/12/29 11:34:06;;;;;;;;;;;;;;;15.96;46.46;101053.59;5061536;28;1197;-49
2023/12/29 11:36:33;;;;;;;;;;;;;;;15.77;47.09;101057.44;5051540;28;949;-49
2023/12/29 11:39:04;;;;;;;;;;;;;;;15.60;47.60;101050.56;5058057;28;1110;-52
2023/12/29 11:41:43;;;;;;;;;;;;;;;15.52;47.76;101052.84;5074468;28;1921;-50
2023/12/29 11:44:09;;;;;;;;;;;;;;;16.64;45.25;101058.88;5057743;28;1004;-50
2023/12/29 11:46:37;;;;;;;;;;;;;;;17.37;43.32;101055.66;5059030;28;1068;-51
2023/12/29 11:49:04;;;;;;;;;;;;;;;16.43;45.33;101055.00;5075705;28;1003;-51
2023/12/29 11:51:29;;;;;;;;;;;;;;;16.06;46.58;101059.19;5075695;28;1150;-53
2023/12/29 11:53:55;;;;;;;;;;;;;;;15.82;47.05;101061.56;5067434;28;1954;-51
2023/12/29 11:56:21;;;;;;;;;;;;;;;15.62;47.21;101053.09;5073407;28;1016;-49
2023/12/29 11:58:46;;;;;;;;;;;;;;;16.03;46.86;101049.59;5055929;28;1083;-53
2023/12/29 12:01:12;;;;;;;;;;;;;;;17.37;43.59;101055.66;5059496;28;1973;-50
2023/12/29 12:03:38;;;;;;;;;;;;;;;16.50;45.28;101057.13;5074154;28;1293;-51
2023/12/29 12:06:03;;;;;;;;;;;;;;;15.98;46.50;101050.84;5075296;28;1104;-48
2023/12/29 12:08:30;;;;;;;;;;;;;;;15.84;46.74;101054.38;5074929;28;1027;-51
2023/12/29 12:10:56;;;;;;;;;;;;;;;15.65;47.56;101044.94;5075083;28;1094;-49
2023/12/29 12:13:40;;;;;;;;;;;;;;;15.51;47.57;101043.19;5074837;28;1051;-50
2023/12/29 12:16:05;;;;;;;;;;;;;;;16.67;45.23;101051.63;5071608;28;1195;-47
2023/12/29 12:18:31;;;;;;;;;;;;;;;17.20;43.69;101053.34;5056712;28;1043;-51
2023/12/29 12:20:57;;;;;;;;;;;;;;;16.35;45.71;101044.91;5057035;28;1981;-51
2023/12/29 12:23:22;;;;;;;;;;;;;;;15.98;46.57;101045.53;5074782;28;1529;-48
2023/12/29 12:25:48;;;;;;;;;;;;;;;15.76;47.00;101041.63;5048582;28;1309;-47
2023/12/29 12:28:14;;;;;;;;;;;;;;;15.57;47.82;101037.50;5049988;28;1095;-49
2023/12/29 12:30:39;;;;;;;;;;;;;;;15.82;47.28;101043.88;5057057;28;1281;-54
2023/12/29 12:33:05;;;;;;;;;;;;;;;17.22;43.93;101044.31;5074485;28;1302;-49
2023/12/29 12:35:31;;;;;;;;;;;;;;;17.19;43.71;101047.19;5069378;28;1083;-52
2023/12/29 12:38:11;;;;;;;;;;;;;;;16.39;45.67;101038.44;5069203;28;1325;-53
2023/12/29 12:40:38;;;;;;;;;;;;;;;16.02;46.75;101037.28;5063479;28;1981;-53
2023/12/29 12:43:03;;;;;;;;;;;;;;;15.80;47.25;101040.47;5074718;28;1130;-49